Time;durP1;ratioP1;P1;durP2;ratioP2;P2;SDS_P1;SDS_P2;PMS_P1;PMS_P2;Temp;Humidity;BMP_temperature;BMP_pressure;BME280_temperature;BME280_humidity;BME280_pressure;Samples;Min_cycle;Max_cycle;Signal;HPM_P1;HPM_P2
2022/02/16 00:00:08;;;;;;;;;;;;;;;;;;7391234;19;2106;-62
2022/02/16 00:02:38;;;;;;;;;;;;;;;;;;7391797;19;2102;-62
2022/02/16 00:05:08;;;;;;;;;;;;;;;;;;7391327;19;2183;-61
2022/02/16 00:07:37;;;;;;;;;;;;;;;;;;7390541;19;2094;-61
2022/02/16 00:10:04;;;;;;;;;;;;;;;;;;7388294;19;2061;-61
2022/02/16 00:12:31;;;;;;;;;;;;;;;;;;7389582;19;2148;-62
2022/02/16 00:14:59;;;;;;;;;;;;;;;;;;7388423;19;2067;-62
2022/02/16 00:17:26;;;;;;;;;;;;;;;;;;7390231;19;2193;-63
2022/02/16 00:19:54;;;;;;;;;;;;;;;;;;7390583;19;2138;-62
2022/02/16 00:22:22;;;;;;;;;;;;;;;;;;7390125;19;2158;-62
2022/02/16 00:24:49;;;;;;;;;;;;;;;;;;7390176;19;2144;-61
2022/02/16 00:27:16;;;;;;;;;;;;;;;;;;7390912;19;2161;-62
2022/02/16 00:29:44;;;;;;;;;;;;;;;;;;7394833;19;2256;-63
2022/02/16 00:32:12;;;;;;;;;;;;;;;;;;7396653;19;2117;-62
2022/02/16 00:34:39;;;;;;;;;;;;;;;;;;7397207;19;2054;-63
2022/02/16 00:37:08;;;;;;;;;;;;;;;;;;7398100;19;2164;-62
2022/02/16 00:39:36;;;;;;;;;;;;;;;;;;7397540;19;2285;-63
2022/02/16 00:42:03;;;;;;;;;;;;;;;;;;7396059;19;2147;-63
2022/02/16 00:44:30;;;;;;;;;;;;;;;;;;7397462;19;2262;-63
2022/02/16 00:46:57;;;;;;;;;;;;;;;;;;7394797;19;2046;-61
2022/02/16 00:49:25;;;;;;;;;;;;;;;;;;7395498;19;2158;-61
2022/02/16 00:51:53;;;;;;;;;;;;;;;;;;7394669;19;2103;-62
2022/02/16 00:54:26;;;;;;;;;;;;;;;;;;7394180;19;2042;-61
2022/02/16 00:56:53;;;;;;;;;;;;;;;;;;7396163;19;2167;-62
2022/02/16 00:59:26;;;;;;;;;;;;;;;;;;7394967;19;2046;-62
2022/02/16 01:01:54;;;;;;;;;;;;;;;;;;7393850;19;2256;-62
2022/02/16 01:04:23;;;;;;;;;;;;;;;;;;7394517;19;2211;-63
2022/02/16 01:06:55;;;;;;;;;;;;;;;;;;7394675;19;2157;-62
2022/02/16 01:09:22;;;;;;;;;;;;;;;;;;7395031;19;2106;-62
2022/02/16 01:11:52;;;;;;;;;;;;;;;;;;7395874;19;2173;-62
2022/02/16 01:14:24;;;;;;;;;;;;;;;;;;7394095;19;2044;-61
2022/02/16 01:17:30;;;;;;;;;;;;;;;;;;7394359;19;2086;-61
2022/02/16 01:20:13;;;;;;;;;;;;;;;;;;7393715;19;2156;-61
2022/02/16 01:22:43;;;;;;;;;;;;;;;;;;7394165;19;1998;-62
2022/02/16 01:25:13;;;;;;;;;;;;;;;;;;7393592;19;2168;-61
2022/02/16 01:27:42;;;;;;;;;;;;;;;;;;7394758;19;2094;-62
2022/02/16 01:30:12;;;;;;;;;;;;;;;;;;7393810;19;2266;-63
2022/02/16 01:32:46;;;;;;;;;;;;;;;;;;7393774;19;2147;-63
2022/02/16 01:35:19;;;;;;;;;;;;;;;;;;7393538;19;2138;-61
2022/02/16 01:37:49;;;;;;;;;;;;;;;;;;7394039;19;2074;-62
2022/02/16 01:40:16;;;;;;;;;;;;;;;;;;7393351;19;2188;-61
2022/02/16 01:42:46;;;;;;;;;;;;;;;;;;7392983;19;2139;-61
2022/02/16 01:45:25;;;;;;;;;;;;;;;;;;7396662;19;2197;-62
2022/02/16 01:47:53;;;;;;;;;;;;;;;;;;7392693;19;2296;-62
2022/02/16 01:50:21;;;;;;;;;;;;;;;;;;7391441;19;2048;-61
2022/02/16 01:52:52;;;;;;;;;;;;;;;;;;7392586;19;1751;-62
2022/02/16 01:55:20;;;;;;;;;;;;;;;;;;7392282;19;2153;-62
2022/02/16 01:57:49;;;;;;;;;;;;;;;;;;7394448;19;2165;-61
2022/02/16 02:00:19;;;;;;;;;;;;;;;;;;7396773;19;2220;-61
2022/02/16 02:02:50;;;;;;;;;;;;;;;;;;7392205;19;2069;-62
2022/02/16 02:05:34;;;;;;;;;;;;;;;;;;7392099;19;2237;-62
2022/02/16 02:08:04;;;;;;;;;;;;;;;;;;7394187;19;2101;-62
2022/02/16 02:10:32;;;;;;;;;;;;;;;;;;7391891;19;2192;-62
2022/02/16 02:12:59;;;;;;;;;;;;;;;;;;7393503;19;2070;-61
2022/02/16 02:15:39;;;;;;;;;;;;;;;;;;7392212;19;1968;-61
2022/02/16 02:18:13;;;;;;;;;;;;;;;;;;7394010;19;2281;-61
2022/02/16 02:20:42;;;;;;;;;;;;;;;;;;7393195;19;2203;-61
2022/02/16 02:23:10;;;;;;;;;;;;;;;;;;7391549;19;2092;-61
2022/02/16 02:25:51;;;;;;;;;;;;;;;;;;7393095;19;2132;-62
2022/02/16 02:28:20;;;;;;;;;;;;;;;;;;7391270;19;2079;-61
2022/02/16 02:30:48;;;;;;;;;;;;;;;;;;7390190;19;2155;-61
2022/02/16 02:33:18;;;;;;;;;;;;;;;;;;7390825;19;2131;-60
2022/02/16 02:35:51;;;;;;;;;;;;;;;;;;7392670;19;2159;-61
2022/02/16 02:38:20;;;;;;;;;;;;;;;;;;7391331;19;2157;-61
2022/02/16 02:40:54;;;;;;;;;;;;;;;;;;7391712;19;2155;-61
2022/02/16 02:43:25;;;;;;;;;;;;;;;;;;7390897;19;2172;-61
2022/02/16 02:45:54;;;;;;;;;;;;;;;;;;7393550;19;1975;-61
2022/02/16 02:48:28;;;;;;;;;;;;;;;;;;7391196;19;2128;-61
2022/02/16 02:50:56;;;;;;;;;;;;;;;;;;7388521;19;1975;-60
2022/02/16 02:53:24;;;;;;;;;;;;;;;;;;7390694;19;2085;-61
2022/02/16 02:55:53;;;;;;;;;;;;;;;;;;7390784;19;2190;-60
2022/02/16 02:58:21;;;;;;;;;;;;;;;;;;7390735;19;2173;-60
2022/02/16 03:00:50;;;;;;;;;;;;;;;;;;7390556;19;2013;-61
2022/02/16 03:03:17;;;;;;;;;;;;;;;;;;7391942;19;2098;-60
2022/02/16 03:05:45;;;;;;;;;;;;;;;;;;7390621;19;2110;-60
2022/02/16 03:08:13;;;;;;;;;;;;;;;;;;7390282;19;2182;-60
2022/02/16 03:10:40;;;;;;;;;;;;;;;;;;7391261;19;2137;-60
2022/02/16 03:13:19;;;;;;;;;;;;;;;;;;7389736;19;2175;-61
2022/02/16 03:15:54;;;;;;;;;;;;;;;;;;7390122;19;1966;-60
2022/02/16 03:18:24;;;;;;;;;;;;;;;;;;7389722;19;2008;-60
2022/02/16 03:20:53;;;;;;;;;;;;;;;;;;7391061;19;2193;-60
2022/02/16 03:23:22;;;;;;;;;;;;;;;;;;7390163;19;2199;-59
2022/02/16 03:25:49;;;;;;;;;;;;;;;;;;7390219;19;2118;-59
2022/02/16 03:28:20;;;;;;;;;;;;;;;;;;7390737;19;2115;-59
2022/02/16 03:30:59;;;;;;;;;;;;;;;;;;7388210;19;1884;-56
2022/02/16 03:33:31;;;;;;;;;;;;;;;;;;7388784;19;2135;-58
2022/02/16 03:35:59;;;;;;;;;;;;;;;;;;7390217;19;2050;-58
2022/02/16 03:38:26;;;;;;;;;;;;;;;;;;7389855;19;2168;-56
2022/02/16 03:40:54;;;;;;;;;;;;;;;;;;7390902;19;2137;-57
2022/02/16 03:43:21;;;;;;;;;;;;;;;;;;7389478;19;2133;-56
2022/02/16 03:45:49;;;;;;;;;;;;;;;;;;7393902;19;2175;-56
2022/02/16 03:48:17;;;;;;;;;;;;;;;;;;7389461;19;1949;-57
2022/02/16 03:50:44;;;;;;;;;;;;;;;;;;7387766;19;2148;-60
2022/02/16 03:53:12;;;;;;;;;;;;;;;;;;7388738;19;2082;-61
2022/02/16 03:55:39;;;;;;;;;;;;;;;;;;7388717;19;2285;-54
2022/02/16 03:58:08;;;;;;;;;;;;;;;;;;7388738;19;2051;-50
2022/02/16 04:00:36;;;;;;;;;;;;;;;;;;7389108;19;2291;-51
2022/02/16 04:03:07;;;;;;;;;;;;;;;;;;7397743;19;2552;-52
2022/02/16 04:05:36;;;;;;;;;;;;;;;;;;7396370;19;2070;-52
2022/02/16 04:08:05;;;;;;;;;;;;;;;;;;7398331;19;2094;-50
2022/02/16 04:10:32;;;;;;;;;;;;;;;;;;7395563;19;2195;-54
2022/02/16 04:13:00;;;;;;;;;;;;;;;;;;7395776;19;1639;-62
2022/02/16 04:15:28;;;;;;;;;;;;;;;;;;7396666;19;2132;-46
2022/02/16 04:18:02;;;;;;;;;;;;;;;;;;7398185;19;2316;-51
2022/02/16 04:20:30;;;;;;;;;;;;;;;;;;7397894;19;2076;-48
2022/02/16 04:22:57;;;;;;;;;;;;;;;;;;7396104;19;2110;-52
2022/02/16 04:25:25;;;;;;;;;;;;;;;;;;7396828;19;2218;-47
2022/02/16 04:27:54;;;;;;;;;;;;;;;;;;7395806;19;2131;-46
2022/02/16 04:30:27;;;;;;;;;;;;;;;;;;7394241;19;2060;-45
2022/02/16 04:32:55;;;;;;;;;;;;;;;;;;7395543;19;2167;-48
2022/02/16 04:35:23;;;;;;;;;;;;;;;;;;7395642;19;2101;-50
2022/02/16 04:37:51;;;;;;;;;;;;;;;;;;7397529;19;2173;-46
2022/02/16 04:40:19;;;;;;;;;;;;;;;;;;7394603;19;2188;-48
2022/02/16 04:42:47;;;;;;;;;;;;;;;;;;7395783;19;2186;-48
2022/02/16 04:45:15;;;;;;;;;;;;;;;;;;7396824;19;2330;-50
2022/02/16 04:47:44;;;;;;;;;;;;;;;;;;7395691;19;2114;-45
2022/02/16 04:50:12;;;;;;;;;;;;;;;;;;7394177;19;2215;-51
2022/02/16 04:52:40;;;;;;;;;;;;;;;;;;7397137;19;2116;-49
2022/02/16 04:55:32;;;;;;;;;;;;;;;;;;7395724;19;2187;-48
2022/02/16 04:58:06;;;;;;;;;;;;;;;;;;7394591;19;2167;-48
2022/02/16 05:00:33;;;;;;;;;;;;;;;;;;7395530;19;2199;-45
2022/02/16 05:03:08;;;;;;;;;;;;;;;;;;7397341;19;2202;-47
2022/02/16 05:05:35;;;;;;;;;;;;;;;;;;7395917;19;2227;-46
2022/02/16 05:08:03;;;;;;;;;;;;;;;;;;7394839;19;2061;-50
2022/02/16 05:10:31;;;;;;;;;;;;;;;;;;7393054;19;2181;-48
2022/02/16 05:13:01;;;;;;;;;;;;;;;;;;7392617;19;2122;-55
2022/02/16 05:15:29;;;;;;;;;;;;;;;;;;7395902;19;2157;-47
2022/02/16 05:17:56;;;;;;;;;;;;;;;;;;7396224;19;2110;-46
2022/02/16 05:20:48;;;;;;;;;;;;;;;;;;7394591;19;2049;-47
2022/02/16 05:23:15;;;;;;;;;;;;;;;;;;7393785;19;2105;-58
2022/02/16 05:25:46;;;;;;;;;;;;;;;;;;7394080;19;2149;-48
2022/02/16 05:28:14;;;;;;;;;;;;;;;;;;7395359;19;2182;-47
2022/02/16 05:30:41;;;;;;;;;;;;;;;;;;7365697;19;10354;-51
2022/02/16 05:33:10;;;;;;;;;;;;;;;;;;7394019;19;1927;-47
2022/02/16 05:35:37;;;;;;;;;;;;;;;;;;7395095;19;2095;-48
2022/02/16 05:38:05;;;;;;;;;;;;;;;;;;7392984;19;2081;-50
2022/02/16 05:40:36;;;;;;;;;;;;;;;;;;7393524;19;2149;-48
2022/02/16 05:43:03;;;;;;;;;;;;;;;;;;7393794;19;2058;-49
2022/02/16 05:45:31;;;;;;;;;;;;;;;;;;7394432;19;2316;-48
2022/02/16 06:22:14;;;;;;;;;;;;;;;;;;7426364;19;1353;-50
2022/02/16 06:24:42;;;;;;;;;;;;;;;;;;7424928;19;903;-49
2022/02/16 06:27:11;;;;;;;;;;;;;;;;;;7424659;19;1426;-44
2022/02/16 06:29:39;;;;;;;;;;;;;;;;;;7426737;19;869;-53
2022/02/16 06:32:31;;;;;;;;;;;;;;;;;;7425727;19;1077;-62
2022/02/16 06:35:00;;;;;;;;;;;;;;;;;;7425090;19;1237;-48
2022/02/16 06:37:28;;;;;;;;;;;;;;;;;;7425195;19;1247;-46
2022/02/16 06:39:56;;;;;;;;;;;;;;;;;;7424253;19;1861;-44
2022/02/16 06:42:25;;;;;;;;;;;;;;;;;;7419878;19;1276;-44
2022/02/16 06:44:53;;;;;;;;;;;;;;;;;;7419289;19;1194;-44
2022/02/16 06:47:28;;;;;;;;;;;;;;;;;;7420323;19;1244;-44
2022/02/16 06:49:55;;;;;;;;;;;;;;;;;;7421263;19;1183;-44
2022/02/16 06:52:22;;;;;;;;;;;;;;;;;;7420470;19;1250;-46
2022/02/16 06:54:50;;;;;;;;;;;;;;;;;;7419977;19;1239;-46
2022/02/16 06:57:18;;;;;;;;;;;;;;;;;;7423949;19;1326;-52
2022/02/16 06:59:57;;;;;;;;;;;;;;;;;;7424561;19;1858;-44
2022/02/16 07:02:25;;;;;;;;;;;;;;;;;;7423743;19;1186;-52
2022/02/16 07:04:52;;;;;;;;;;;;;;;;;;7424570;19;1188;-44
2022/02/16 07:07:20;;;;;;;;;;;;;;;;;;7424017;19;1188;-45
2022/02/16 07:09:47;;;;;;;;;;;;;;;;;;7426036;19;925;-51
2022/02/16 07:12:14;;;;;;;;;;;;;;;;;;7423445;19;1177;-44
2022/02/16 07:14:43;;;;;;;;;;;;;;;;;;7425781;19;911;-44
2022/02/16 07:17:11;;;;;;;;;;;;;;;;;;7423636;19;910;-43
2022/02/16 07:19:40;;;;;;;;;;;;;;;;;;7423351;19;1456;-44
2022/02/16 07:22:16;;;;;;;;;;;;;;;;;;7422541;19;1909;-44
2022/02/16 07:24:46;;;;;;;;;;;;;;;;;;7423400;19;1321;-44
2022/02/16 07:27:14;;;;;;;;;;;;;;;;;;7424409;19;875;-43
2022/02/16 07:29:42;;;;;;;;;;;;;;;;;;7423212;19;1451;-54
2022/02/16 07:32:10;;;;;;;;;;;;;;;;;;7412663;19;1179;-44
2022/02/16 07:34:37;;;;;;;;;;;;;;;;;;7394265;19;1321;-44
2022/02/16 07:37:06;;;;;;;;;;;;;;;;;;7394863;19;1236;-44
2022/02/16 07:39:34;;;;;;;;;;;;;;;;;;7396034;19;938;-44
2022/02/16 07:42:02;;;;;;;;;;;;;;;;;;7393516;19;1862;-44
2022/02/16 07:44:46;;;;;;;;;;;;;;;;;;7396188;19;1292;-44
2022/02/16 07:47:20;;;;;;;;;;;;;;;;;;7394299;19;1243;-44
2022/02/16 07:49:47;;;;;;;;;;;;;;;;;;7393767;19;1138;-44
2022/02/16 07:52:21;;;;;;;;;;;;;;;;;;7395614;19;893;-44
2022/02/16 07:55:07;;;;;;;;;;;;;;;;;;7394002;19;1235;-44
2022/02/16 07:57:36;;;;;;;;;;;;;;;;;;7393787;19;1252;-43
2022/02/16 08:00:05;;;;;;;;;;;;;;;;;;7394263;19;1247;-45
2022/02/16 08:02:42;;;;;;;;;;;;;;;;;;7395400;19;950;-44
2022/02/16 08:05:17;;;;;;;;;;;;;;;;;;7394653;19;1050;-44
2022/02/16 08:07:45;;;;;;;;;;;;;;;;;;7394816;19;891;-44
2022/02/16 08:10:13;;;;;;;;;;;;;;;;;;7393029;19;1272;-44
2022/02/16 08:12:48;;;;;;;;;;;;;;;;;;7392548;19;1224;-45
2022/02/16 08:15:15;;;;;;;;;;;;;;;;;;7392144;19;1516;-43
2022/02/16 08:17:44;;;;;;;;;;;;;;;;;;7393114;19;1173;-44
2022/02/16 08:20:12;;;;;;;;;;;;;;;;;;7392270;19;1309;-45
2022/02/16 08:23:05;;;;;;;;;;;;;;;;;;7392783;19;1189;-47
2022/02/16 08:25:34;;;;;;;;;;;;;;;;;;7393030;19;1193;-44
2022/02/16 08:28:06;;;;;;;;;;;;;;;;;;7392808;19;1248;-45
2022/02/16 08:30:35;;;;;;;;;;;;;;;;;;7392909;19;1183;-44
2022/02/16 08:33:09;;;;;;;;;;;;;;;;;;7392224;19;1260;-43
2022/02/16 08:35:39;;;;;;;;;;;;;;;;;;7391822;19;1474;-45
2022/02/16 08:38:06;;;;;;;;;;;;;;;;;;7393755;19;998;-45
2022/02/16 08:40:35;;;;;;;;;;;;;;;;;;7394216;19;1845;-46
2022/02/16 08:43:22;;;;;;;;;;;;;;;;;;7391990;19;1779;-44
2022/02/16 08:45:49;;;;;;;;;;;;;;;;;;7396582;19;1113;-44
2022/02/16 08:48:17;;;;;;;;;;;;;;;;;;7393898;19;923;-53
2022/02/16 08:50:47;;;;;;;;;;;;;;;;;;7393628;19;976;-44
2022/02/16 08:53:14;;;;;;;;;;;;;;;;;;7393243;19;970;-43
2022/02/16 08:55:41;;;;;;;;;;;;;;;;;;7392770;19;855;-44
2022/02/16 08:58:12;;;;;;;;;;;;;;;;;;7392958;19;966;-43
2022/02/16 09:00:42;;;;;;;;;;;;;;;;;;7393169;19;1858;-44
2022/02/16 09:03:09;;;;;;;;;;;;;;;;;;7392677;19;1005;-45
2022/02/16 09:05:36;;;;;;;;;;;;;;;;;;7393715;19;958;-45
2022/02/16 09:08:03;;;;;;;;;;;;;;;;;;7392413;19;913;-53
2022/02/16 09:10:31;;;;;;;;;;;;;;;;;;7392371;19;1244;-45
2022/02/16 09:13:00;;;;;;;;;;;;;;;;;;7393028;19;858;-53
2022/02/16 09:15:27;;;;;;;;;;;;;;;;;;7393274;19;966;-44
2022/02/16 09:17:55;;;;;;;;;;;;;;;;;;7393143;19;1395;-43
2022/02/16 09:20:23;;;;;;;;;;;;;;;;;;7391789;19;1069;-46
2022/02/16 09:22:51;;;;;;;;;;;;;;;;;;7390378;19;1865;-44
2022/02/16 09:25:19;;;;;;;;;;;;;;;;;;7392508;19;946;-44
2022/02/16 09:27:47;;;;;;;;;;;;;;;;;;7392823;19;921;-44
2022/02/16 09:30:14;;;;;;;;;;;;;;;;;;7392445;19;929;-44
2022/02/16 09:32:42;;;;;;;;;;;;;;;;;;7392742;19;880;-44
2022/02/16 09:35:09;;;;;;;;;;;;;;;;;;7389019;19;1256;-44
2022/02/16 09:37:37;;;;;;;;;;;;;;;;;;7394422;19;1216;-45
2022/02/16 09:40:06;;;;;;;;;;;;;;;;;;7389795;19;1077;-45
2022/02/16 09:42:33;;;;;;;;;;;;;;;;;;7388030;19;1834;-43
2022/02/16 09:45:06;;;;;;;;;;;;;;;;;;7389674;19;1304;-43
2022/02/16 09:47:44;;;;;;;;;;;;;;;;;;7395903;19;1116;-43
2022/02/16 09:50:14;;;;;;;;;;;;;;;;;;7387781;19;958;-43
2022/02/16 09:52:42;;;;;;;;;;;;;;;;;;7386006;19;971;-43
2022/02/16 09:55:11;;;;;;;;;;;;;;;;;;7386392;19;1094;-45
2022/02/16 09:57:38;;;;;;;;;;;;;;;;;;7391733;19;1045;-48
2022/02/16 10:00:07;;;;;;;;;;;;;;;;;;7390699;19;1044;-43
2022/02/16 10:02:43;;;;;;;;;;;;;;;;;;7389688;19;1842;-44
2022/02/16 10:05:10;;;;;;;;;;;;;;;;;;7391275;19;912;-44
2022/02/16 10:07:45;;;;;;;;;;;;;;;;;;7391213;19;1171;-43
2022/02/16 10:10:14;;;;;;;;;;;;;;;;;;7390801;19;951;-43
2022/02/16 10:12:44;;;;;;;;;;;;;;;;;;7390518;19;1006;-44
2022/02/16 10:15:13;;;;;;;;;;;;;;;;;;7390540;19;990;-50
2022/02/16 10:17:40;;;;;;;;;;;;;;;;;;7390512;19;1001;-45
2022/02/16 10:20:09;;;;;;;;;;;;;;;;;;7390571;19;1258;-44
2022/02/16 10:22:44;;;;;;;;;;;;;;;;;;7389743;19;1854;-44
2022/02/16 10:25:32;;;;;;;;;;;;;;;;;;7390710;19;905;-44
2022/02/16 10:28:04;;;;;;;;;;;;;;;;;;7391274;19;1288;-44
2022/02/16 10:30:32;;;;;;;;;;;;;;;;;;7392350;19;946;-44
2022/02/16 10:33:18;;;;;;;;;;;;;;;;;;7391082;19;861;-45
2022/02/16 10:35:46;;;;;;;;;;;;;;;;;;7390254;19;1045;-48
2022/02/16 10:38:13;;;;;;;;;;;;;;;;;;7390599;19;934;-43
2022/02/16 10:40:40;;;;;;;;;;;;;;;;;;7390647;19;899;-46
2022/02/16 10:43:10;;;;;;;;;;;;;;;;;;7388358;19;1845;-44
2022/02/16 10:45:47;;;;;;;;;;;;;;;;;;7393302;19;1167;-44
2022/02/16 10:48:18;;;;;;;;;;;;;;;;;;7390185;19;863;-43
2022/02/16 10:50:47;;;;;;;;;;;;;;;;;;7390067;19;903;-44
2022/02/16 10:53:23;;;;;;;;;;;;;;;;;;7389974;19;890;-44
2022/02/16 10:55:50;;;;;;;;;;;;;;;;;;7388311;19;962;-44
2022/02/16 10:58:20;;;;;;;;;;;;;;;;;;7389988;19;902;-44
2022/02/16 11:00:48;;;;;;;;;;;;;;;;;;7389789;19;878;-44
2022/02/16 11:03:35;;;;;;;;;;;;;;;;;;7387266;19;1861;-45
2022/02/16 11:06:05;;;;;;;;;;;;;;;;;;7389620;19;1002;-45
2022/02/16 11:08:33;;;;;;;;;;;;;;;;;;7394806;19;940;-44
2022/02/16 11:11:20;;;;;;;;;;;;;;;;;;7396998;19;992;-44
2022/02/16 11:13:52;;;;;;;;;;;;;;;;;;7395851;19;903;-43
2022/02/16 11:16:20;;;;;;;;;;;;;;;;;;7396764;19;973;-44
2022/02/16 11:18:48;;;;;;;;;;;;;;;;;;7397118;19;895;-44
2022/02/16 11:21:17;;;;;;;;;;;;;;;;;;7394891;19;1865;-44
2022/02/16 11:23:47;;;;;;;;;;;;;;;;;;7396828;19;950;-43
2022/02/16 11:26:23;;;;;;;;;;;;;;;;;;7395799;19;926;-44
2022/02/16 11:28:51;;;;;;;;;;;;;;;;;;7396126;19;950;-44
2022/02/16 11:31:28;;;;;;;;;;;;;;;;;;7395712;19;1080;-44
2022/02/16 11:34:10;;;;;;;;;;;;;;;;;;7396480;19;923;-45
2022/02/16 11:36:58;;;;;;;;;;;;;;;;;;7396458;19;875;-44
2022/02/16 11:39:57;;;;;;;;;;;;;;;;;;7395070;19;895;-43
2022/02/16 11:42:45;;;;;;;;;;;;;;;;;;7394823;19;1846;-45
2022/02/16 11:45:13;;;;;;;;;;;;;;;;;;7398775;19;1188;-44
2022/02/16 11:47:40;;;;;;;;;;;;;;;;;;7395642;19;927;-47
2022/02/16 11:50:12;;;;;;;;;;;;;;;;;;7395175;19;884;-44
2022/02/16 11:52:56;;;;;;;;;;;;;;;;;;7395818;19;897;-44
2022/02/16 11:55:26;;;;;;;;;;;;;;;;;;7395106;19;939;-44
2022/02/16 11:57:55;;;;;;;;;;;;;;;;;;7394943;19;1013;-44
2022/02/16 12:00:42;;;;;;;;;;;;;;;;;;7395322;19;1296;-44
2022/02/16 12:03:13;;;;;;;;;;;;;;;;;;7391430;19;1891;-44
2022/02/16 12:05:51;;;;;;;;;;;;;;;;;;7394779;19;976;-46
2022/02/16 12:08:19;;;;;;;;;;;;;;;;;;7394885;19;966;-43
2022/02/16 12:10:46;;;;;;;;;;;;;;;;;;7395103;19;946;-44
2022/02/16 12:13:13;;;;;;;;;;;;;;;;;;7394548;19;1025;-43
2022/02/16 12:15:45;;;;;;;;;;;;;;;;;;7395062;19;958;-44
2022/02/16 12:18:13;;;;;;;;;;;;;;;;;;7394024;19;1208;-44
2022/02/16 12:20:47;;;;;;;;;;;;;;;;;;7393743;19;1085;-44
2022/02/16 12:23:14;;;;;;;;;;;;;;;;;;7391951;19;1902;-45
2022/02/16 12:25:41;;;;;;;;;;;;;;;;;;7394220;19;1275;-43
2022/02/16 12:28:08;;;;;;;;;;;;;;;;;;7394699;19;963;-44
2022/02/16 12:30:37;;;;;;;;;;;;;;;;;;7393702;19;883;-45
2022/02/16 12:33:21;;;;;;;;;;;;;;;;;;7394120;19;962;-44
2022/02/16 12:35:49;;;;;;;;;;;;;;;;;;7393068;19;879;-43
2022/02/16 12:38:27;;;;;;;;;;;;;;;;;;7394219;19;843;-43
2022/02/16 12:40:54;;;;;;;;;;;;;;;;;;7393706;19;975;-43
2022/02/16 12:43:21;;;;;;;;;;;;;;;;;;7391597;19;1842;-52
2022/02/16 12:45:49;;;;;;;;;;;;;;;;;;7397844;19;1160;-44
2022/02/16 12:48:17;;;;;;;;;;;;;;;;;;7393451;19;1452;-44
2022/02/16 12:50:45;;;;;;;;;;;;;;;;;;7393306;19;933;-44
2022/02/16 12:53:15;;;;;;;;;;;;;;;;;;7393208;19;942;-44
2022/02/16 12:55:46;;;;;;;;;;;;;;;;;;7393969;19;973;-45
2022/02/16 12:58:16;;;;;;;;;;;;;;;;;;7393936;19;890;-44
2022/02/16 13:00:52;;;;;;;;;;;;;;;;;;7393258;19;982;-43
2022/02/16 13:03:26;;;;;;;;;;;;;;;;;;7390997;19;1853;-43
2022/02/16 13:05:53;;;;;;;;;;;;;;;;;;7393557;19;883;-43
2022/02/16 13:08:23;;;;;;;;;;;;;;;;;;7390513;19;1001;-45
2022/02/16 13:10:51;;;;;;;;;;;;;;;;;;7392518;19;863;-49
2022/02/16 13:13:19;;;;;;;;;;;;;;;;;;7392763;19;927;-57
2022/02/16 13:15:48;;;;;;;;;;;;;;;;;;7392893;19;1257;-47
2022/02/16 13:18:16;;;;;;;;;;;;;;;;;;7392208;19;919;-45
2022/02/16 13:20:44;;;;;;;;;;;;;;;;;;7391804;19;1067;-52
2022/02/16 13:23:15;;;;;;;;;;;;;;;;;;7395089;19;1842;-48
2022/02/16 13:25:44;;;;;;;;;;;;;;;;;;7392326;19;934;-52
2022/02/16 13:28:16;;;;;;;;;;;;;;;;;;7392550;19;939;-48
2022/02/16 13:30:44;;;;;;;;;;;;;;;;;;7390803;19;1011;-52
2022/02/16 13:33:22;;;;;;;;;;;;;;;;;;7391804;19;839;-53
2022/02/16 13:35:51;;;;;;;;;;;;;;;;;;7392029;19;990;-48
2022/02/16 13:38:19;;;;;;;;;;;;;;;;;;7392685;19;907;-58
2022/02/16 13:40:49;;;;;;;;;;;;;;;;;;7391892;19;954;-45
2022/02/16 13:44:02;;;;;;;;;;;;;;;;;;7390006;19;1857;-48
2022/02/16 13:46:40;;;;;;;;;;;;;;;;;;7391346;19;877;-60
2022/02/16 13:49:12;;;;;;;;;;;;;;;;;;7391860;19;887;-44
2022/02/16 13:51:54;;;;;;;;;;;;;;;;;;7391241;19;947;-55
2022/02/16 13:54:26;;;;;;;;;;;;;;;;;;7391508;19;954;-47
2022/02/16 13:56:58;;;;;;;;;;;;;;;;;;7391581;19;851;-56
2022/02/16 13:59:26;;;;;;;;;;;;;;;;;;7391102;19;842;-46
2022/02/16 14:02:03;;;;;;;;;;;;;;;;;;7391062;19;1846;-53
2022/02/16 14:04:33;;;;;;;;;;;;;;;;;;7391591;19;943;-49
2022/02/16 14:07:03;;;;;;;;;;;;;;;;;;7391692;19;899;-47
2022/02/16 14:09:30;;;;;;;;;;;;;;;;;;7391447;19;1022;-48
2022/02/16 14:11:58;;;;;;;;;;;;;;;;;;7391609;19;888;-48
2022/02/16 14:14:30;;;;;;;;;;;;;;;;;;7391297;19;955;-47
2022/02/16 14:16:57;;;;;;;;;;;;;;;;;;7390310;19;943;-66
2022/02/16 14:19:24;;;;;;;;;;;;;;;;;;7391026;19;1066;-49
2022/02/16 14:21:58;;;;;;;;;;;;;;;;;;7388750;19;1858;-48
2022/02/16 14:24:26;;;;;;;;;;;;;;;;;;7390648;19;963;-50
2022/02/16 14:26:53;;;;;;;;;;;;;;;;;;7390410;19;922;-65
2022/02/16 14:29:20;;;;;;;;;;;;;;;;;;7390605;19;868;-44
2022/02/16 14:31:48;;;;;;;;;;;;;;;;;;7389933;19;959;-47
2022/02/16 14:34:16;;;;;;;;;;;;;;;;;;7390509;19;1054;-60
2022/02/16 14:36:45;;;;;;;;;;;;;;;;;;7390758;19;880;-51
2022/02/16 14:39:12;;;;;;;;;;;;;;;;;;7390073;19;843;-44
2022/02/16 14:41:40;;;;;;;;;;;;;;;;;;7389692;19;1005;-46
2022/02/16 14:44:10;;;;;;;;;;;;;;;;;;7394859;19;1838;-63
2022/02/16 14:46:40;;;;;;;;;;;;;;;;;;7397972;19;1021;-46
2022/02/16 14:49:08;;;;;;;;;;;;;;;;;;7396821;19;901;-45
2022/02/16 14:51:36;;;;;;;;;;;;;;;;;;7398386;19;965;-48
2022/02/16 14:54:04;;;;;;;;;;;;;;;;;;7396532;19;839;-46
2022/02/16 14:56:31;;;;;;;;;;;;;;;;;;7397936;19;891;-48
2022/02/16 14:58:59;;;;;;;;;;;;;;;;;;7396030;19;1223;-49
2022/02/16 15:01:27;;;;;;;;;;;;;;;;;;7399087;19;1348;-50
2022/02/16 15:03:57;;;;;;;;;;;;;;;;;;7392202;19;1862;-51
2022/02/16 15:06:24;;;;;;;;;;;;;;;;;;7401268;19;1336;-44
2022/02/16 15:08:51;;;;;;;;;;;;;;;;;;7394375;19;1182;-51
2022/02/16 15:11:19;;;;;;;;;;;;;;;;;;7399029;19;1160;-48
2022/02/16 15:13:46;;;;;;;;;;;;;;;;;;7396717;19;975;-53
2022/02/16 15:16:13;;;;;;;;;;;;;;;;;;7396944;19;914;-47
2022/02/16 15:18:41;;;;;;;;;;;;;;;;;;7396710;19;1255;-61
2022/02/16 15:21:08;;;;;;;;;;;;;;;;;;7395042;19;1085;-46
2022/02/16 15:23:35;;;;;;;;;;;;;;;;;;7392493;19;1849;-46
2022/02/16 15:26:05;;;;;;;;;;;;;;;;;;7390071;19;1513;-45
2022/02/16 15:28:33;;;;;;;;;;;;;;;;;;7400088;19;886;-63
2022/02/16 15:31:00;;;;;;;;;;;;;;;;;;7396207;19;982;-53
2022/02/16 15:33:27;;;;;;;;;;;;;;;;;;7395202;19;1268;-48
2022/02/16 15:35:56;;;;;;;;;;;;;;;;;;7399166;19;1080;-52
2022/02/16 15:38:26;;;;;;;;;;;;;;;;;;7398390;19;1352;-47
2022/02/16 15:40:54;;;;;;;;;;;;;;;;;;7399220;19;1026;-48
2022/02/16 15:43:22;;;;;;;;;;;;;;;;;;7394771;19;1850;-46
2022/02/16 15:45:49;;;;;;;;;;;;;;;;;;7400120;19;1267;-48
2022/02/16 15:48:18;;;;;;;;;;;;;;;;;;7395262;19;883;-51
2022/02/16 15:50:45;;;;;;;;;;;;;;;;;;7395441;19;1002;-49
2022/02/16 15:53:14;;;;;;;;;;;;;;;;;;7394565;19;1382;-49
2022/02/16 15:55:41;;;;;;;;;;;;;;;;;;7396126;19;1160;-62
2022/02/16 15:58:08;;;;;;;;;;;;;;;;;;7393925;19;947;-48
2022/02/16 16:00:36;;;;;;;;;;;;;;;;;;7393357;19;950;-47
2022/02/16 16:03:04;;;;;;;;;;;;;;;;;;7393485;19;1846;-46
2022/02/16 16:05:33;;;;;;;;;;;;;;;;;;7397259;19;1176;-46
2022/02/16 16:08:03;;;;;;;;;;;;;;;;;;7395133;19;1313;-47
2022/02/16 16:10:33;;;;;;;;;;;;;;;;;;7394981;19;954;-44
2022/02/16 16:13:02;;;;;;;;;;;;;;;;;;7395043;19;886;-48
2022/02/16 16:15:29;;;;;;;;;;;;;;;;;;7394933;19;1414;-48
2022/02/16 16:18:00;;;;;;;;;;;;;;;;;;7398024;19;1062;-54
2022/02/16 16:20:28;;;;;;;;;;;;;;;;;;7393924;19;1042;-46
2022/02/16 16:23:01;;;;;;;;;;;;;;;;;;7393348;19;1865;-55
2022/02/16 16:25:41;;;;;;;;;;;;;;;;;;7390428;19;1151;-46
2022/02/16 16:28:10;;;;;;;;;;;;;;;;;;7397987;19;1258;-46
2022/02/16 16:30:37;;;;;;;;;;;;;;;;;;7388677;19;1516;-49
2022/02/16 16:33:05;;;;;;;;;;;;;;;;;;7397411;19;1411;-53
2022/02/16 16:35:32;;;;;;;;;;;;;;;;;;7395177;19;929;-55
2022/02/16 16:38:02;;;;;;;;;;;;;;;;;;7398210;19;1016;-43
2022/02/16 16:40:29;;;;;;;;;;;;;;;;;;7397553;19;902;-44
2022/02/16 16:42:59;;;;;;;;;;;;;;;;;;7397519;19;1850;-54
2022/02/16 16:45:30;;;;;;;;;;;;;;;;;;7397537;19;1173;-45
2022/02/16 16:47:58;;;;;;;;;;;;;;;;;;7393782;19;981;-45
2022/02/16 16:50:25;;;;;;;;;;;;;;;;;;7392636;19;1165;-46
2022/02/16 16:52:53;;;;;;;;;;;;;;;;;;7393243;19;890;-48
2022/02/16 16:55:22;;;;;;;;;;;;;;;;;;7393052;19;934;-44
2022/02/16 16:57:50;;;;;;;;;;;;;;;;;;7393579;19;887;-44
2022/02/16 17:00:17;;;;;;;;;;;;;;;;;;7392674;19;938;-45
2022/02/16 17:02:45;;;;;;;;;;;;;;;;;;7389837;19;1862;-46
2022/02/16 17:05:15;;;;;;;;;;;;;;;;;;7385087;19;1601;-47
2022/02/16 17:07:42;;;;;;;;;;;;;;;;;;7396492;19;1098;-45
2022/02/16 17:10:09;;;;;;;;;;;;;;;;;;7392426;19;966;-49
2022/02/16 17:12:37;;;;;;;;;;;;;;;;;;7392718;19;847;-62
2022/02/16 17:15:05;;;;;;;;;;;;;;;;;;7392787;19;915;-47
2022/02/16 17:17:33;;;;;;;;;;;;;;;;;;7392595;19;910;-47
2022/02/16 17:20:01;;;;;;;;;;;;;;;;;;7390308;19;1179;-50
2022/02/16 17:22:45;;;;;;;;;;;;;;;;;;7387075;19;1506;-53
2022/02/16 17:25:14;;;;;;;;;;;;;;;;;;7390296;19;1069;-46
2022/02/16 17:27:43;;;;;;;;;;;;;;;;;;7392890;19;1356;-46
2022/02/16 17:30:10;;;;;;;;;;;;;;;;;;7392367;19;1376;-49
2022/02/16 17:32:38;;;;;;;;;;;;;;;;;;7392118;19;1241;-46
2022/02/16 17:35:06;;;;;;;;;;;;;;;;;;7391990;19;1288;-49
2022/02/16 17:37:33;;;;;;;;;;;;;;;;;;7392570;19;935;-46
2022/02/16 17:40:00;;;;;;;;;;;;;;;;;;7392519;19;939;-44
2022/02/16 17:42:32;;;;;;;;;;;;;;;;;;7391951;19;891;-46
2022/02/16 17:45:02;;;;;;;;;;;;;;;;;;7392794;19;1874;-45
2022/02/16 17:47:30;;;;;;;;;;;;;;;;;;7392573;19;957;-45
2022/02/16 17:49:58;;;;;;;;;;;;;;;;;;7391805;19;884;-46
2022/02/16 17:52:26;;;;;;;;;;;;;;;;;;7391204;19;863;-47
2022/02/16 17:54:54;;;;;;;;;;;;;;;;;;7389988;19;867;-50
2022/02/16 17:57:43;;;;;;;;;;;;;;;;;;7391264;19;895;-46
2022/02/16 18:00:12;;;;;;;;;;;;;;;;;;7391849;19;1226;-47
2022/02/16 18:02:44;;;;;;;;;;;;;;;;;;7389879;19;970;-46